Aviation Digital Data Service (ADDS)

Output produced by METARs form (0101 UTC 06 December 2019)
found at http://www.aviationweather.gov/metar/data/
 
METAR text: KOAK 060053Z 02004KT 10SM BKN030 BKN035 OVC049 15/11 A3003 RMK AO2 SLP170 T01500106
Conditions at: KOAK (OAKLAND , CA, US) observed 0053 UTC 06 December 2019
Temperature: 15.0°C (59°F)
Dewpoint: 10.6°C (51°F) [RH = 75%]
Pressure (altimeter): 30.03 inches Hg (1017.0 mb)
[Sea-level pressure: 1017.0 mb]
Winds: from the NNE (20 degrees) at 5 MPH (4 knots; 2.1 m/s)
Visibility: 10 or more miles (16+ km)
Ceiling: 3000 feet AGL
Clouds: broken clouds at 3000 feet AGL
broken clouds at 3500 feet AGL
overcast cloud deck at 4900 feet AGL
Weather: no significant weather observed at this time

METAR text: KOAK 052353Z 33003KT 10SM FEW025 BKN030 OVC047 14/11 A3004 RMK AO2 SLP173 T01440106 10156 20133 55001
Conditions at: KOAK (OAKLAND , CA, US) observed 2353 UTC 05 December 2019
Temperature: 14.4°C (58°F)
Dewpoint: 10.6°C (51°F) [RH = 78%]
Pressure (altimeter): 30.04 inches Hg (1017.4 mb)
[Sea-level pressure: 1017.3 mb]
Winds: from the NNW (330 degrees) at 3 MPH (3 knots; 1.5 m/s)
Visibility: 10 or more miles (16+ km)
Ceiling: 3000 feet AGL
Clouds: few clouds at 2500 feet AGL
broken clouds at 3000 feet AGL
overcast cloud deck at 4700 feet AGL
Weather: no significant weather observed at this time

METAR text: KOAK 052350Z 00000KT 10SM BKN028 BKN034 OVC049 14/11 A3004 RMK AO2
Conditions at: KOAK (OAKLAND , CA, US) observed 2350 UTC 05 December 2019
Temperature: 14.0°C (57°F)
Dewpoint: 11.0°C (52°F) [RH = 82%]
Pressure (altimeter): 30.04 inches Hg (1017.4 mb)
Winds: calm
Visibility: 10 or more miles (16+ km)
Ceiling: 2800 feet AGL
Clouds: broken clouds at 2800 feet AGL
broken clouds at 3400 feet AGL
overcast cloud deck at 4900 feet AGL
Weather: no significant weather observed at this time

METAR text: KOAK 052253Z 29005KT 10SM FEW034 OVC050 14/10 A3004 RMK AO2 SLP173 T01440100
Conditions at: KOAK (OAKLAND , CA, US) observed 2253 UTC 05 December 2019
Temperature: 14.4°C (58°F)
Dewpoint: 10.0°C (50°F) [RH = 75%]
Pressure (altimeter): 30.04 inches Hg (1017.4 mb)
[Sea-level pressure: 1017.3 mb]
Winds: from the WNW (290 degrees) at 6 MPH (5 knots; 2.6 m/s)
Visibility: 10 or more miles (16+ km)
Ceiling: 5000 feet AGL
Clouds: few clouds at 3400 feet AGL
overcast cloud deck at 5000 feet AGL
Weather: no significant weather observed at this time

METAR text: KOAK 052153Z 00000KT 10SM FEW034 OVC045 14/11 A3005 RMK AO2 SLP175 T01440111
Conditions at: KOAK (OAKLAND , CA, US) observed 2153 UTC 05 December 2019
Temperature: 14.4°C (58°F)
Dewpoint: 11.1°C (52°F) [RH = 81%]
Pressure (altimeter): 30.05 inches Hg (1017.7 mb)
[Sea-level pressure: 1017.5 mb]
Winds: calm
Visibility: 10 or more miles (16+ km)
Ceiling: 4500 feet AGL
Clouds: few clouds at 3400 feet AGL
overcast cloud deck at 4500 feet AGL
Weather: no significant weather observed at this time

METAR text: KOAK 052053Z 27004KT 10SM BKN034 OVC043 13/11 A3005 RMK AO2 SLP177 T01330106 58014
Conditions at: KOAK (OAKLAND , CA, US) observed 2053 UTC 05 December 2019
Temperature: 13.3°C (56°F)
Dewpoint: 10.6°C (51°F) [RH = 84%]
Pressure (altimeter): 30.05 inches Hg (1017.7 mb)
[Sea-level pressure: 1017.7 mb]
Winds: from the W (270 degrees) at 5 MPH (4 knots; 2.1 m/s)
Visibility: 10 or more miles (16+ km)
Ceiling: 3400 feet AGL
Clouds: broken clouds at 3400 feet AGL
overcast cloud deck at 4300 feet AGL
Weather: no significant weather observed at this time

METAR text: KOAK 051953Z 27004KT 10SM BKN034 OVC040 13/11 A3007 RMK AO2 SLP184 T01330106
Conditions at: KOAK (OAKLAND , CA, US) observed 1953 UTC 05 December 2019
Temperature: 13.3°C (56°F)
Dewpoint: 10.6°C (51°F) [RH = 84%]
Pressure (altimeter): 30.07 inches Hg (1018.4 mb)
[Sea-level pressure: 1018.4 mb]
Winds: from the W (270 degrees) at 5 MPH (4 knots; 2.1 m/s)
Visibility: 10 or more miles (16+ km)
Ceiling: 3400 feet AGL
Clouds: broken clouds at 3400 feet AGL
overcast cloud deck at 4000 feet AGL
Weather: no significant weather observed at this time

METAR text: KOAK 051853Z 00000KT 10SM FEW015 SCT034 BKN250 14/12 A3010 RMK AO2 SLP191 T01440117
Conditions at: KOAK (OAKLAND , CA, US) observed 1853 UTC 05 December 2019
Temperature: 14.4°C (58°F)
Dewpoint: 11.7°C (53°F) [RH = 84%]
Pressure (altimeter): 30.10 inches Hg (1019.4 mb)
[Sea-level pressure: 1019.1 mb]
Winds: calm
Visibility: 10 or more miles (16+ km)
Ceiling: 25000 feet AGL
Clouds: few clouds at 1500 feet AGL
scattered clouds at 3400 feet AGL
broken clouds at 25000 feet AGL
Weather: no significant weather observed at this time

METAR text: KOAK 051753Z 00000KT 10SM FEW015 SCT037 BKN250 14/12 A3010 RMK AO2 SLP191 T01440117 10144 20083 51017
Conditions at: KOAK (OAKLAND , CA, US) observed 1753 UTC 05 December 2019
Temperature: 14.4°C (58°F)
Dewpoint: 11.7°C (53°F) [RH = 84%]
Pressure (altimeter): 30.10 inches Hg (1019.4 mb)
[Sea-level pressure: 1019.1 mb]
Winds: calm
Visibility: 10 or more miles (16+ km)
Ceiling: 25000 feet AGL
Clouds: few clouds at 1500 feet AGL
scattered clouds at 3700 feet AGL
broken clouds at 25000 feet AGL
Weather: no significant weather observed at this time

METAR text: KOAK 051653Z 00000KT 10SM FEW004 SCT015 BKN250 12/11 A3009 RMK AO2 SLP190 T01220111
Conditions at: KOAK (OAKLAND , CA, US) observed 1653 UTC 05 December 2019
Temperature: 12.2°C (54°F)
Dewpoint: 11.1°C (52°F) [RH = 93%]
Pressure (altimeter): 30.09 inches Hg (1019.0 mb)
[Sea-level pressure: 1019.0 mb]
Winds: calm
Visibility: 10 or more miles (16+ km)
Ceiling: 25000 feet AGL
Clouds: few clouds at 400 feet AGL
scattered clouds at 1500 feet AGL
broken clouds at 25000 feet AGL
Weather: no significant weather observed at this time

METAR text: KOAK 051629Z 00000KT 6SM BR BCFG SCT004 BKN250 12/10 A3008 RMK AO2 T01170100
Conditions at: KOAK (OAKLAND , CA, US) observed 1629 UTC 05 December 2019
Temperature: 11.7°C (53°F)
Dewpoint: 10.0°C (50°F) [RH = 89%]
Pressure (altimeter): 30.08 inches Hg (1018.7 mb)
Winds: calm
Visibility: 6 miles (10 km)
Ceiling: 25000 feet AGL
Clouds: scattered clouds at 400 feet AGL
broken clouds at 25000 feet AGL
Weather: BR BCFG  (mist, patches of fog)

METAR text: KOAK 051619Z 05004KT 2 1/2SM BR BCFG BKN004 12/10 A3008 RMK AO2 TWR VIS 8 T01170100
Conditions at: KOAK (OAKLAND , CA, US) observed 1619 UTC 05 December 2019
Temperature: 11.7°C (53°F)
Dewpoint: 10.0°C (50°F) [RH = 89%]
Pressure (altimeter): 30.08 inches Hg (1018.7 mb)
Winds: from the NE (50 degrees) at 5 MPH (4 knots; 2.1 m/s)
Visibility: 2.50 miles (4.02 km)
Ceiling: 400 feet AGL
Clouds: broken clouds at 400 feet AGL
Weather: BR BCFG  (mist, patches of fog)

METAR text: KOAK 051553Z 00000KT 1/2SM FG FEW004 OVC250 11/10 A3008 RMK AO2 TWR VIS 8 SLP184 T01060100
Conditions at: KOAK (OAKLAND , CA, US) observed 1553 UTC 05 December 2019
Temperature: 10.6°C (51°F)
Dewpoint: 10.0°C (50°F) [RH = 96%]
Pressure (altimeter): 30.08 inches Hg (1018.7 mb)
[Sea-level pressure: 1018.4 mb]
Winds: calm
Visibility: 0.50 miles (0.80 km)
Ceiling: 25000 feet AGL
Clouds: few clouds at 400 feet AGL
overcast cloud deck at 25000 feet AGL
Weather: FG  (fog)

METAR text: KOAK 051546Z 00000KT 1SM BR MIFG FEW004 OVC250 11/09 A3007 RMK AO2 TWR VIS 8 T01060094
Conditions at: KOAK (OAKLAND , CA, US) observed 1546 UTC 05 December 2019
Temperature: 10.6°C (51°F)
Dewpoint: 9.4°C (49°F) [RH = 92%]
Pressure (altimeter): 30.07 inches Hg (1018.4 mb)
Winds: calm
Visibility: 1.00 miles (1.61 km)
Ceiling: 25000 feet AGL
Clouds: few clouds at 400 feet AGL
overcast cloud deck at 25000 feet AGL
Weather: BR MIFG  (mist, shallow fog)

METAR text: KOAK 051453Z 00000KT 5SM BR BCFG FEW004 09/08 A3005 RMK AO2 SLP174 T00940078 53012
Conditions at: KOAK (OAKLAND , CA, US) observed 1453 UTC 05 December 2019
Temperature: 9.4°C (49°F)
Dewpoint: 7.8°C (46°F) [RH = 90%]
Pressure (altimeter): 30.05 inches Hg (1017.7 mb)
[Sea-level pressure: 1017.4 mb]
Winds: calm
Visibility: 5 miles ( 8 km)
Ceiling: at least 12,000 feet AGL
Clouds: few clouds at 400 feet AGL
Weather: BR BCFG  (mist, patches of fog)

METAR text: KOAK 051353Z 00000KT 4SM BR BCFG FEW004 11/09 A3004 RMK AO2 SLP170 VIS SE-S 1 T01060089
Conditions at: KOAK (OAKLAND , CA, US) observed 1353 UTC 05 December 2019
Temperature: 10.6°C (51°F)
Dewpoint: 8.9°C (48°F) [RH = 89%]
Pressure (altimeter): 30.04 inches Hg (1017.4 mb)
[Sea-level pressure: 1017.0 mb]
Winds: calm
Visibility: 4 miles ( 6 km)
Ceiling: at least 12,000 feet AGL
Clouds: few clouds at 400 feet AGL
Weather: BR BCFG  (mist, patches of fog)

METAR text: KOAK 051253Z 00000KT 7SM FEW010 10/08 A3001 RMK AO2 SLP163 T01000083
Conditions at: KOAK (OAKLAND , CA, US) observed 1253 UTC 05 December 2019
Temperature: 10.0°C (50°F)
Dewpoint: 8.3°C (47°F) [RH = 89%]
Pressure (altimeter): 30.01 inches Hg (1016.3 mb)
[Sea-level pressure: 1016.3 mb]
Winds: calm
Visibility: 7 miles (11 km)
Ceiling: at least 12,000 feet AGL
Clouds: few clouds at 1000 feet AGL
Weather: no significant weather observed at this time

METAR text: KOAK 051153Z 00000KT 7SM FEW010 11/09 A3001 RMK AO2 SLP162 60001 70004 T01110094 10133 20111 53007
Conditions at: KOAK (OAKLAND , CA, US) observed 1153 UTC 05 December 2019
Temperature: 11.1°C (52°F)
Dewpoint: 9.4°C (49°F) [RH = 89%]
Pressure (altimeter): 30.01 inches Hg (1016.3 mb)
[Sea-level pressure: 1016.2 mb]
Winds: calm
Visibility: 7 miles (11 km)
Ceiling: at least 12,000 feet AGL
Clouds: few clouds at 1000 feet AGL
Weather: no significant weather observed at this time

METAR text: KOAK 051055Z 00000KT 8SM SCT010 12/10 A3000 RMK AO2 T01170100
Conditions at: KOAK (OAKLAND , CA, US) observed 1055 UTC 05 December 2019
Temperature: 11.7°C (53°F)
Dewpoint: 10.0°C (50°F) [RH = 89%]
Pressure (altimeter): 30.00 inches Hg (1016.0 mb)
Winds: calm
Visibility: 8 miles (13 km)
Ceiling: at least 12,000 feet AGL
Clouds: scattered clouds at 1000 feet AGL
Weather: no significant weather observed at this time

METAR text: KOAK 051053Z 00000KT 6SM BR OVC010 12/10 A3000 RMK AO2 SLP158 T01220100
Conditions at: KOAK (OAKLAND , CA, US) observed 1053 UTC 05 December 2019
Temperature: 12.2°C (54°F)
Dewpoint: 10.0°C (50°F) [RH = 86%]
Pressure (altimeter): 30.00 inches Hg (1016.0 mb)
[Sea-level pressure: 1015.8 mb]
Winds: calm
Visibility: 6 miles (10 km)
Ceiling: 1000 feet AGL
Clouds: overcast cloud deck at 1000 feet AGL
Weather: BR  (mist)

METAR text: KOAK 050953Z 12004KT 6SM BR OVC010 13/11 A2999 RMK AO2 SLP156 T01280111
Conditions at: KOAK (OAKLAND , CA, US) observed 0953 UTC 05 December 2019
Temperature: 12.8°C (55°F)
Dewpoint: 11.1°C (52°F) [RH = 89%]
Pressure (altimeter): 29.99 inches Hg (1015.7 mb)
[Sea-level pressure: 1015.6 mb]
Winds: from the ESE (120 degrees) at 5 MPH (4 knots; 2.1 m/s)
Visibility: 6 miles (10 km)
Ceiling: 1000 feet AGL
Clouds: overcast cloud deck at 1000 feet AGL
Weather: BR  (mist)

METAR text: KOAK 050853Z 16003KT 6SM BR BKN015 OVC040 13/11 A2999 RMK AO2 SLP155 60001 T01280111 51011
Conditions at: KOAK (OAKLAND , CA, US) observed 0853 UTC 05 December 2019
Temperature: 12.8°C (55°F)
Dewpoint: 11.1°C (52°F) [RH = 89%]
Pressure (altimeter): 29.99 inches Hg (1015.7 mb)
[Sea-level pressure: 1015.5 mb]
Winds: from the SSE (160 degrees) at 3 MPH (3 knots; 1.5 m/s)
Visibility: 6 miles (10 km)
Ceiling: 1500 feet AGL
Clouds: broken clouds at 1500 feet AGL
overcast cloud deck at 4000 feet AGL
Weather: BR  (mist)

METAR text: KOAK 050845Z 00000KT 6SM BR BKN015 OVC040 13/11 A2999 RMK AO2 T01280111
Conditions at: KOAK (OAKLAND , CA, US) observed 0845 UTC 05 December 2019
Temperature: 12.8°C (55°F)
Dewpoint: 11.1°C (52°F) [RH = 89%]
Pressure (altimeter): 29.99 inches Hg (1015.7 mb)
Winds: calm
Visibility: 6 miles (10 km)
Ceiling: 1500 feet AGL
Clouds: broken clouds at 1500 feet AGL
overcast cloud deck at 4000 feet AGL
Weather: BR  (mist)

METAR text: KOAK 050816Z 00000KT 6SM BR SCT015 OVC041 13/11 A2999 RMK AO2 T01280111
Conditions at: KOAK (OAKLAND , CA, US) observed 0816 UTC 05 December 2019
Temperature: 12.8°C (55°F)
Dewpoint: 11.1°C (52°F) [RH = 89%]
Pressure (altimeter): 29.99 inches Hg (1015.7 mb)
Winds: calm
Visibility: 6 miles (10 km)
Ceiling: 4100 feet AGL
Clouds: scattered clouds at 1500 feet AGL
overcast cloud deck at 4100 feet AGL
Weather: BR  (mist)

METAR text: KOAK 050753Z 00000KT 7SM BKN013 BKN022 BKN034 13/11 A2999 RMK AO2 RAE14 SLP154 P0000 T01280111 401500117
Conditions at: KOAK (OAKLAND , CA, US) observed 0753 UTC 05 December 2019
Temperature: 12.8°C (55°F)
Dewpoint: 11.1°C (52°F) [RH = 89%]
Pressure (altimeter): 29.99 inches Hg (1015.7 mb)
[Sea-level pressure: 1015.4 mb]
Winds: calm
Visibility: 7 miles (11 km)
Ceiling: 1300 feet AGL
Clouds: broken clouds at 1300 feet AGL
broken clouds at 2200 feet AGL
broken clouds at 3400 feet AGL
Weather: no significant weather observed at this time

METAR text: KOAK 050746Z VRB03KT 8SM BKN013 BKN022 BKN034 13/11 A2999 RMK AO2 RAE14 P0000 T01280111
Conditions at: KOAK (OAKLAND , CA, US) observed 0746 UTC 05 December 2019
Temperature: 12.8°C (55°F)
Dewpoint: 11.1°C (52°F) [RH = 89%]
Pressure (altimeter): 29.99 inches Hg (1015.7 mb)
Winds: variable direction winds at 3 MPH (3 knots; 1.5 m/s)
Visibility: 8 miles (13 km)
Ceiling: 1300 feet AGL
Clouds: broken clouds at 1300 feet AGL
broken clouds at 2200 feet AGL
broken clouds at 3400 feet AGL
Weather: no significant weather observed at this time

METAR text: KOAK 050653Z 00000KT 4SM -RA BR SCT016 BKN019 OVC027 13/11 A2997 RMK AO2 RAB19 SLP149 P0001 T01330111
Conditions at: KOAK (OAKLAND , CA, US) observed 0653 UTC 05 December 2019
Temperature: 13.3°C (56°F)
Dewpoint: 11.1°C (52°F) [RH = 87%]
Pressure (altimeter): 29.97 inches Hg (1015.0 mb)
[Sea-level pressure: 1014.9 mb]
Winds: calm
Visibility: 4 miles ( 6 km)
Ceiling: 1900 feet AGL
Clouds: scattered clouds at 1600 feet AGL
broken clouds at 1900 feet AGL
overcast cloud deck at 2700 feet AGL
Weather: -RA BR  (light rain, mist)

METAR text: KOAK 050553Z 07004KT 10SM SCT018 BKN025 OVC040 13/11 A2996 RMK AO2 SLP144 T01330106 10139 20117 51019
Conditions at: KOAK (OAKLAND , CA, US) observed 0553 UTC 05 December 2019
Temperature: 13.3°C (56°F)
Dewpoint: 10.6°C (51°F) [RH = 84%]
Pressure (altimeter): 29.96 inches Hg (1014.6 mb)
[Sea-level pressure: 1014.4 mb]
Winds: from the ENE (70 degrees) at 5 MPH (4 knots; 2.1 m/s)
Visibility: 10 or more miles (16+ km)
Ceiling: 2500 feet AGL
Clouds: scattered clouds at 1800 feet AGL
broken clouds at 2500 feet AGL
overcast cloud deck at 4000 feet AGL
Weather: no significant weather observed at this time

METAR text: KOAK 050453Z 09004KT 10SM FEW015 SCT032 BKN041 13/11 A2995 RMK AO2 SLP141 T01330106
Conditions at: KOAK (OAKLAND , CA, US) observed 0453 UTC 05 December 2019
Temperature: 13.3°C (56°F)
Dewpoint: 10.6°C (51°F) [RH = 84%]
Pressure (altimeter): 29.95 inches Hg (1014.3 mb)
[Sea-level pressure: 1014.1 mb]
Winds: from the E (90 degrees) at 5 MPH (4 knots; 2.1 m/s)
Visibility: 10 or more miles (16+ km)
Ceiling: 4100 feet AGL
Clouds: few clouds at 1500 feet AGL
scattered clouds at 3200 feet AGL
broken clouds at 4100 feet AGL
Weather: no significant weather observed at this time

METAR text: KOAK 050353Z 00000KT 10SM FEW015 SCT034 BKN042 13/10 A2992 RMK AO2 SLP131 T01280100
Conditions at: KOAK (OAKLAND , CA, US) observed 0353 UTC 05 December 2019
Temperature: 12.8°C (55°F)
Dewpoint: 10.0°C (50°F) [RH = 83%]
Pressure (altimeter): 29.92 inches Hg (1013.3 mb)
[Sea-level pressure: 1013.1 mb]
Winds: calm
Visibility: 10 or more miles (16+ km)
Ceiling: 4200 feet AGL
Clouds: few clouds at 1500 feet AGL
scattered clouds at 3400 feet AGL
broken clouds at 4200 feet AGL
Weather: no significant weather observed at this time

METAR text: KOAK 050253Z 05003KT 10SM FEW015 SCT038 BKN110 13/10 A2990 RMK AO2 SLP125 T01280100 53017
Conditions at: KOAK (OAKLAND , CA, US) observed 0253 UTC 05 December 2019
Temperature: 12.8°C (55°F)
Dewpoint: 10.0°C (50°F) [RH = 83%]
Pressure (altimeter): 29.90 inches Hg (1012.6 mb)
[Sea-level pressure: 1012.5 mb]
Winds: from the NE (50 degrees) at 3 MPH (3 knots; 1.5 m/s)
Visibility: 10 or more miles (16+ km)
Ceiling: 11000 feet AGL
Clouds: few clouds at 1500 feet AGL
scattered clouds at 3800 feet AGL
broken clouds at 11000 feet AGL
Weather: no significant weather observed at this time

METAR text: KOAK 050153Z 06008KT 10SM SCT045 BKN085 BKN120 13/10 A2988 RMK AO2 SLP118 T01330100
Conditions at: KOAK (OAKLAND , CA, US) observed 0153 UTC 05 December 2019
Temperature: 13.3°C (56°F)
Dewpoint: 10.0°C (50°F) [RH = 80%]
Pressure (altimeter): 29.88 inches Hg (1011.9 mb)
[Sea-level pressure: 1011.8 mb]
Winds: from the ENE (60 degrees) at 9 MPH (8 knots; 4.1 m/s)
Visibility: 10 or more miles (16+ km)
Ceiling: 8500 feet AGL
Clouds: scattered clouds at 4500 feet AGL
broken clouds at 8500 feet AGL
broken clouds at 12000 feet AGL
Weather: no significant weather observed at this time

METAR text: KOAK 050053Z 07007KT 10SM FEW010 BKN047 BKN080 13/10 A2987 RMK AO2 SLP113 T01330100
Conditions at: KOAK (OAKLAND , CA, US) observed 0053 UTC 05 December 2019
Temperature: 13.3°C (56°F)
Dewpoint: 10.0°C (50°F) [RH = 80%]
Pressure (altimeter): 29.87 inches Hg (1011.6 mb)
[Sea-level pressure: 1011.3 mb]
Winds: from the ENE (70 degrees) at 8 MPH (7 knots; 3.6 m/s)
Visibility: 10 or more miles (16+ km)
Ceiling: 4700 feet AGL
Clouds: few clouds at 1000 feet AGL
broken clouds at 4700 feet AGL
broken clouds at 8000 feet AGL
Weather: no significant weather observed at this time

METAR text: KOAK 042353Z 10004KT 10SM FEW010 BKN035 BKN080 14/10 A2985 RMK AO2 SLP108 60001 T01390100 10150 20128 53009
Conditions at: KOAK (OAKLAND , CA, US) observed 2353 UTC 04 December 2019
Temperature: 13.9°C (57°F)
Dewpoint: 10.0°C (50°F) [RH = 77%]
Pressure (altimeter): 29.85 inches Hg (1010.9 mb)
[Sea-level pressure: 1010.8 mb]
Winds: from the E (100 degrees) at 5 MPH (4 knots; 2.1 m/s)
Visibility: 10 or more miles (16+ km)
Ceiling: 3500 feet AGL
Clouds: few clouds at 1000 feet AGL
broken clouds at 3500 feet AGL
broken clouds at 8000 feet AGL
Weather: no significant weather observed at this time

METAR text: KOAK 042253Z 03003KT 10SM FEW023 SCT035 BKN075 14/11 A2983 RMK AO2 SLP101 T01440111
Conditions at: KOAK (OAKLAND , CA, US) observed 2253 UTC 04 December 2019
Temperature: 14.4°C (58°F)
Dewpoint: 11.1°C (52°F) [RH = 81%]
Pressure (altimeter): 29.83 inches Hg (1010.2 mb)
[Sea-level pressure: 1010.1 mb]
Winds: from the NNE (30 degrees) at 3 MPH (3 knots; 1.5 m/s)
Visibility: 10 or more miles (16+ km)
Ceiling: 7500 feet AGL
Clouds: few clouds at 2300 feet AGL
scattered clouds at 3500 feet AGL
broken clouds at 7500 feet AGL
Weather: no significant weather observed at this time

METAR text: KOAK 042231Z 04003KT 10SM SCT023 BKN035 OVC075 14/11 A2982 RMK AO2 T01440106
Conditions at: KOAK (OAKLAND , CA, US) observed 2231 UTC 04 December 2019
Temperature: 14.4°C (58°F)
Dewpoint: 10.6°C (51°F) [RH = 78%]
Pressure (altimeter): 29.82 inches Hg (1009.9 mb)
Winds: from the NE (40 degrees) at 3 MPH (3 knots; 1.5 m/s)
Visibility: 10 or more miles (16+ km)
Ceiling: 3500 feet AGL
Clouds: scattered clouds at 2300 feet AGL
broken clouds at 3500 feet AGL
overcast cloud deck at 7500 feet AGL
Weather: no significant weather observed at this time

METAR text: KOAK 042153Z 26005KT 10SM BKN023 OVC035 13/10 A2982 RMK AO2 RAE2059 SLP099 P0000 T01330100
Conditions at: KOAK (OAKLAND , CA, US) observed 2153 UTC 04 December 2019
Temperature: 13.3°C (56°F)
Dewpoint: 10.0°C (50°F) [RH = 80%]
Pressure (altimeter): 29.82 inches Hg (1009.9 mb)
[Sea-level pressure: 1009.9 mb]
Winds: from the W (260 degrees) at 6 MPH (5 knots; 2.6 m/s)
Visibility: 10 or more miles (16+ km)
Ceiling: 2300 feet AGL
Clouds: broken clouds at 2300 feet AGL
overcast cloud deck at 3500 feet AGL
Weather: no significant weather observed at this time

METAR text: KOAK 042151Z 26005KT 10SM BKN023 OVC035 13/10 A2982 RMK AO2 RAE2059 P0000
Conditions at: KOAK (OAKLAND , CA, US) observed 2151 UTC 04 December 2019
Temperature: 13.0°C (55°F)
Dewpoint: 10.0°C (50°F) [RH = 82%]
Pressure (altimeter): 29.82 inches Hg (1009.9 mb)
Winds: from the W (260 degrees) at 6 MPH (5 knots; 2.6 m/s)
Visibility: 10 or more miles (16+ km)
Ceiling: 2300 feet AGL
Clouds: broken clouds at 2300 feet AGL
overcast cloud deck at 3500 feet AGL
Weather: no significant weather observed at this time

METAR text: KOAK 042123Z 26005KT 10SM FEW015 BKN035 OVC090 14/11 A2982 RMK AO2 RAE2059 P0000 T01390106
Conditions at: KOAK (OAKLAND , CA, US) observed 2123 UTC 04 December 2019
Temperature: 13.9°C (57°F)
Dewpoint: 10.6°C (51°F) [RH = 80%]
Pressure (altimeter): 29.82 inches Hg (1009.9 mb)
Winds: from the W (260 degrees) at 6 MPH (5 knots; 2.6 m/s)
Visibility: 10 or more miles (16+ km)
Ceiling: 3500 feet AGL
Clouds: few clouds at 1500 feet AGL
broken clouds at 3500 feet AGL
overcast cloud deck at 9000 feet AGL
Weather: no significant weather observed at this time

METAR text: KOAK 042053Z 08005KT 10SM -RA FEW015 BKN025 OVC080 14/11 A2982 RMK AO2 RAB43 SLP098 P0000 60001 T01440111 58017
Conditions at: KOAK (OAKLAND , CA, US) observed 2053 UTC 04 December 2019
Temperature: 14.4°C (58°F)
Dewpoint: 11.1°C (52°F) [RH = 81%]
Pressure (altimeter): 29.82 inches Hg (1009.9 mb)
[Sea-level pressure: 1009.8 mb]
Winds: from the E (80 degrees) at 6 MPH (5 knots; 2.6 m/s)
Visibility: 10 or more miles (16+ km)
Ceiling: 2500 feet AGL
Clouds: few clouds at 1500 feet AGL
broken clouds at 2500 feet AGL
overcast cloud deck at 8000 feet AGL
Weather: -RA  (light rain)

METAR text: KOAK 041953Z 00000KT 10SM BKN024 OVC090 13/11 A2985 RMK AO2 RAB09E39 SLP108 P0000 T01330111
Conditions at: KOAK (OAKLAND , CA, US) observed 1953 UTC 04 December 2019
Temperature: 13.3°C (56°F)
Dewpoint: 11.1°C (52°F) [RH = 87%]
Pressure (altimeter): 29.85 inches Hg (1010.9 mb)
[Sea-level pressure: 1010.8 mb]
Winds: calm
Visibility: 10 or more miles (16+ km)
Ceiling: 2400 feet AGL
Clouds: broken clouds at 2400 feet AGL
overcast cloud deck at 9000 feet AGL
Weather: no significant weather observed at this time

METAR text: KOAK 041916Z 06006KT 10SM -RA BKN026 BKN060 OVC100 13/11 A2985 RMK AO2 RAB09 P0000 T01280106
Conditions at: KOAK (OAKLAND , CA, US) observed 1916 UTC 04 December 2019
Temperature: 12.8°C (55°F)
Dewpoint: 10.6°C (51°F) [RH = 86%]
Pressure (altimeter): 29.85 inches Hg (1010.9 mb)
Winds: from the ENE (60 degrees) at 7 MPH (6 knots; 3.1 m/s)
Visibility: 10 or more miles (16+ km)
Ceiling: 2600 feet AGL
Clouds: broken clouds at 2600 feet AGL
broken clouds at 6000 feet AGL
overcast cloud deck at 10000 feet AGL
Weather: -RA  (light rain)

METAR text: KOAK 041853Z 07005KT 10SM SCT028 OVC100 13/11 A2986 RMK AO2 RAE24 SLP112 P0001 T01280106
Conditions at: KOAK (OAKLAND , CA, US) observed 1853 UTC 04 December 2019
Temperature: 12.8°C (55°F)
Dewpoint: 10.6°C (51°F) [RH = 86%]
Pressure (altimeter): 29.86 inches Hg (1011.3 mb)
[Sea-level pressure: 1011.2 mb]
Winds: from the ENE (70 degrees) at 6 MPH (5 knots; 2.6 m/s)
Visibility: 10 or more miles (16+ km)
Ceiling: 10000 feet AGL
Clouds: scattered clouds at 2800 feet AGL
overcast cloud deck at 10000 feet AGL
Weather: no significant weather observed at this time

METAR text: KOAK 041753Z 08007KT 10SM -RA SCT025 BKN065 OVC095 13/11 A2987 RMK AO2 RAB37 SLP115 P0000 60002 T01280106 10133 20122 53013
Conditions at: KOAK (OAKLAND , CA, US) observed 1753 UTC 04 December 2019
Temperature: 12.8°C (55°F)
Dewpoint: 10.6°C (51°F) [RH = 86%]
Pressure (altimeter): 29.87 inches Hg (1011.6 mb)
[Sea-level pressure: 1011.5 mb]
Winds: from the E (80 degrees) at 8 MPH (7 knots; 3.6 m/s)
Visibility: 10 or more miles (16+ km)
Ceiling: 6500 feet AGL
Clouds: scattered clouds at 2500 feet AGL
broken clouds at 6500 feet AGL
overcast cloud deck at 9500 feet AGL
Weather: -RA  (light rain)

METAR text: KOAK 041653Z 05005KT 7SM FEW010 BKN027 OVC060 13/11 A2985 RMK AO2 RAB15E28 SLP107 P0000 T01280106
Conditions at: KOAK (OAKLAND , CA, US) observed 1653 UTC 04 December 2019
Temperature: 12.8°C (55°F)
Dewpoint: 10.6°C (51°F) [RH = 86%]
Pressure (altimeter): 29.85 inches Hg (1010.9 mb)
[Sea-level pressure: 1010.7 mb]
Winds: from the NE (50 degrees) at 6 MPH (5 knots; 2.6 m/s)
Visibility: 7 miles (11 km)
Ceiling: 2700 feet AGL
Clouds: few clouds at 1000 feet AGL
broken clouds at 2700 feet AGL
overcast cloud deck at 6000 feet AGL
Weather: no significant weather observed at this time

METAR text: KOAK 041553Z 07006KT 7SM FEW010 OVC027 12/10 A2984 RMK AO2 RAE1455 SLP105 P0000 T01220100
Conditions at: KOAK (OAKLAND , CA, US) observed 1553 UTC 04 December 2019
Temperature: 12.2°C (54°F)
Dewpoint: 10.0°C (50°F) [RH = 86%]
Pressure (altimeter): 29.84 inches Hg (1010.6 mb)
[Sea-level pressure: 1010.5 mb]
Winds: from the ENE (70 degrees) at 7 MPH (6 knots; 3.1 m/s)
Visibility: 7 miles (11 km)
Ceiling: 2700 feet AGL
Clouds: few clouds at 1000 feet AGL
overcast cloud deck at 2700 feet AGL
Weather: no significant weather observed at this time

METAR text: KOAK 041532Z 08005KT 10SM OVC027 12/10 A2984 RMK AO2 RAE1455 P0000 T01220100
Conditions at: KOAK (OAKLAND , CA, US) observed 1532 UTC 04 December 2019
Temperature: 12.2°C (54°F)
Dewpoint: 10.0°C (50°F) [RH = 86%]
Pressure (altimeter): 29.84 inches Hg (1010.6 mb)
Winds: from the E (80 degrees) at 6 MPH (5 knots; 2.6 m/s)
Visibility: 10 or more miles (16+ km)
Ceiling: 2700 feet AGL
Clouds: overcast cloud deck at 2700 feet AGL
Weather: no significant weather observed at this time

METAR text: KOAK 041453Z 08006KT 10SM -RA OVC034 12/10 A2983 RMK AO2 RAB45 SLP102 P0000 60002 T01220100 55003
Conditions at: KOAK (OAKLAND , CA, US) observed 1453 UTC 04 December 2019
Temperature: 12.2°C (54°F)
Dewpoint: 10.0°C (50°F) [RH = 86%]
Pressure (altimeter): 29.83 inches Hg (1010.2 mb)
[Sea-level pressure: 1010.2 mb]
Winds: from the E (80 degrees) at 7 MPH (6 knots; 3.1 m/s)
Visibility: 10 or more miles (16+ km)
Ceiling: 3400 feet AGL
Clouds: overcast cloud deck at 3400 feet AGL
Weather: -RA  (light rain)

METAR text: KOAK 041353Z 00000KT 10SM OVC038 12/11 A2983 RMK AO2 RAE04 SLP101 P0000 T01220106
Conditions at: KOAK (OAKLAND , CA, US) observed 1353 UTC 04 December 2019
Temperature: 12.2°C (54°F)
Dewpoint: 10.6°C (51°F) [RH = 90%]
Pressure (altimeter): 29.83 inches Hg (1010.2 mb)
[Sea-level pressure: 1010.1 mb]
Winds: calm
Visibility: 10 or more miles (16+ km)
Ceiling: 3800 feet AGL
Clouds: overcast cloud deck at 3800 feet AGL
Weather: no significant weather observed at this time

Forecast for: KOAK (OAKLAND , CA, US)
Text: KOAK 052328Z 0600/0706 12005KT P6SM FEW007 SCT025 BKN250
Forecast period: 0000 to 0600 UTC 06 December 2019
Forecast type: FROM: standard forecast or significant change
Winds: from the ESE (120 degrees) at 6 MPH (5 knots; 2.6 m/s)
Visibility: 6 or more miles 10+ km)
Ceiling: 25000 feet AGL
Clouds: few clouds at 700 feet AGL
scattered clouds at 2500 feet AGL
broken clouds at 25000 feet AGL
Weather: no significant weather forecast for this period
Text: FM060600 13006KT P6SM FEW006 BKN020 OVC250
Forecast period: 0600 to 1400 UTC 06 December 2019
Forecast type: FROM: standard forecast or significant change
Winds: from the SE (130 degrees) at 7 MPH (6 knots; 3.1 m/s)
Visibility: 6 or more miles 10+ km)
Ceiling: 2000 feet AGL
Clouds: few clouds at 600 feet AGL
broken clouds at 2000 feet AGL
overcast cloud deck at 25000 feet AGL
Weather: no significant weather forecast for this period
Text: FM061400 13012KT 6SM BR FEW007 BKN018 OVC200
Forecast period: 1400 to 1800 UTC 06 December 2019
Forecast type: FROM: standard forecast or significant change
Winds: from the SE (130 degrees) at 14 MPH (12 knots; 6.2 m/s)
Visibility: 6 miles (10 km)
Ceiling: 1800 feet AGL
Clouds: few clouds at 700 feet AGL
broken clouds at 1800 feet AGL
overcast cloud deck at 20000 feet AGL
Weather: BR  (mist)
Text: FM061800 13014G28KT 6SM BR VCSH BKN024 OVC035
Forecast period: 1800 to 2000 UTC 06 December 2019
Forecast type: FROM: standard forecast or significant change
Winds: from the SE (130 degrees) at 16 MPH (14 knots; 7.2 m/s)
gusting to 32 MPH (28 knots; 14.4 m/s)
Visibility: 6 miles (10 km)
Ceiling: 2400 feet AGL
Clouds: broken clouds at 2400 feet AGL
overcast cloud deck at 3500 feet AGL
Weather: BR VCSH  (mist, showers in vicinity)
Text: FM062000 14018G32KT 5SM -SHRA BR OVC022
Forecast period: 2000 UTC 06 December 2019 to 0000 UTC 07 December 2019
Forecast type: FROM: standard forecast or significant change
Winds: from the SE (140 degrees) at 21 MPH (18 knots; 9.3 m/s)
gusting to 37 MPH (32 knots; 16.5 m/s)
Visibility: 5 miles (8 km)
Ceiling: 2200 feet AGL
Clouds: overcast cloud deck at 2200 feet AGL
Weather: -SHRA BR  (light rain showers, mist)
Text: FM070000 15022G34KT 5SM -RA BR OVC024 WS020/16045KT
Forecast period: 0000 to 0600 UTC 07 December 2019
Forecast type: FROM: standard forecast or significant change
Winds: from the SSE (150 degrees) at 25 MPH (22 knots; 11.3 m/s)
gusting to 39 MPH (34 knots; 17.5 m/s)
Visibility: 5 miles (8 km)
Ceiling: 2400 feet AGL
Clouds: overcast cloud deck at 2400 feet AGL
Wind Shear: at 2000 feet ( 610 m) AGL, from the SSE (160 degrees) at 52 MPH (45 knots; 23.4 m/s)
Weather: -RA BR  (light rain, mist)